sensor_id;sensor_type;location;lat;lon;timestamp;temperature;humidity
27368;DHT22;14839;48.106;11.618;2023-02-28T05:00:18;-3.80;94.60
27368;DHT22;14839;48.106;11.618;2023-02-28T05:02:44;-3.80;94.60
27368;DHT22;14839;48.106;11.618;2023-02-28T05:05:09;-3.90;94.60
27368;DHT22;14839;48.106;11.618;2023-02-28T05:07:35;-3.80;94.60
27368;DHT22;14839;48.106;11.618;2023-02-28T05:10:00;-3.80;94.60
27368;DHT22;14839;48.106;11.618;2023-02-28T05:12:26;-3.70;94.60
27368;DHT22;14839;48.106;11.618;2023-02-28T05:14:52;-3.60;94.60
27368;DHT22;14839;48.106;11.618;2023-02-28T05:17:17;-3.60;94.60
27368;DHT22;14839;48.106;11.618;2023-02-28T05:19:43;-3.50;94.60
27368;DHT22;14839;48.106;11.618;2023-02-28T05:22:14;-3.40;94.60
27368;DHT22;14839;48.106;11.618;2023-02-28T05:24:41;-3.40;94.60
27368;DHT22;14839;48.106;11.618;2023-02-28T05:27:08;-3.30;94.60
27368;DHT22;14839;48.106;11.618;2023-02-28T05:29:33;-3.20;94.60
27368;DHT22;14839;48.106;11.618;2023-02-28T05:31:59;-3.20;94.60
27368;DHT22;14839;48.106;11.618;2023-02-28T05:34:25;-3.10;94.60
27368;DHT22;14839;48.106;11.618;2023-02-28T05:36:50;-3.00;94.60
27368;DHT22;14839;48.106;11.618;2023-02-28T05:39:16;-3.00;94.60
27368;DHT22;14839;48.106;11.618;2023-02-28T05:41:42;-2.90;94.60
27368;DHT22;14839;48.106;11.618;2023-02-28T05:44:09;-2.90;94.60
27368;DHT22;14839;48.106;11.618;2023-02-28T05:46:35;-2.90;94.60
27368;DHT22;14839;48.106;11.618;2023-02-28T05:49:01;-2.80;94.60
27368;DHT22;14839;48.106;11.618;2023-02-28T05:51:27;-2.70;94.60
27368;DHT22;14839;48.106;11.618;2023-02-28T05:53:52;-2.70;94.60
27368;DHT22;14839;48.106;11.618;2023-02-28T05:56:18;-2.70;94.60
27368;DHT22;14839;48.106;11.618;2023-02-28T05:58:43;-2.70;94.60
27368;DHT22;14839;48.106;11.618;2023-02-28T06:01:37;-2.60;94.60
27368;DHT22;14839;48.106;11.618;2023-02-28T06:04:05;-2.60;94.60
27368;DHT22;14839;48.106;11.618;2023-02-28T06:06:31;-2.60;94.60
27368;DHT22;14839;48.106;11.618;2023-02-28T06:08:59;-2.70;94.60
27368;DHT22;14839;48.106;11.618;2023-02-28T06:11:25;-2.60;94.60
27368;DHT22;14839;48.106;11.618;2023-02-28T06:13:56;-2.60;94.60
27368;DHT22;14839;48.106;11.618;2023-02-28T06:16:23;-2.60;94.60
27368;DHT22;14839;48.106;11.618;2023-02-28T06:18:49;-2.60;94.60
27368;DHT22;14839;48.106;11.618;2023-02-28T06:21:15;-2.60;94.60
27368;DHT22;14839;48.106;11.618;2023-02-28T06:23:40;-2.60;94.60
27368;DHT22;14839;48.106;11.618;2023-02-28T06:26:06;-2.60;94.60
27368;DHT22;14839;48.106;11.618;2023-02-28T06:28:31;-2.60;94.60
27368;DHT22;14839;48.106;11.618;2023-02-28T06:30:57;-2.50;94.60
27368;DHT22;14839;48.106;11.618;2023-02-28T06:33:23;-2.50;94.60
27368;DHT22;14839;48.106;11.618;2023-02-28T06:35:51;-2.50;94.60
27368;DHT22;14839;48.106;11.618;2023-02-28T06:38:17;-2.50;94.60
27368;DHT22;14839;48.106;11.618;2023-02-28T06:40:44;-2.50;94.60
27368;DHT22;14839;48.106;11.618;2023-02-28T06:43:13;-2.40;94.60
27368;DHT22;14839;48.106;11.618;2023-02-28T06:45:43;-2.30;94.60
27368;DHT22;14839;48.106;11.618;2023-02-28T06:48:09;-2.20;94.60
27368;DHT22;14839;48.106;11.618;2023-02-28T06:50:35;-2.30;94.60
27368;DHT22;14839;48.106;11.618;2023-02-28T06:53:01;-2.30;94.60
27368;DHT22;14839;48.106;11.618;2023-02-28T06:55:26;-2.30;94.60
27368;DHT22;14839;48.106;11.618;2023-02-28T06:57:52;-2.20;94.60
27368;DHT22;14839;48.106;11.618;2023-02-28T07:00:18;-2.10;94.60
27368;DHT22;14839;48.106;11.618;2023-02-28T07:02:43;-2.10;94.60
27368;DHT22;14839;48.106;11.618;2023-02-28T07:05:09;-2.10;94.60
27368;DHT22;14839;48.106;11.618;2023-02-28T07:07:34;-2.20;94.60
27368;DHT22;14839;48.106;11.618;2023-02-28T07:10:01;-2.20;94.60
27368;DHT22;14839;48.106;11.618;2023-02-28T07:12:27;-2.10;94.60
27368;DHT22;14839;48.106;11.618;2023-02-28T07:14:53;-2.00;94.60
27368;DHT22;14839;48.106;11.618;2023-02-28T07:17:19;-2.10;94.60
27368;DHT22;14839;48.106;11.618;2023-02-28T07:19:45;-2.10;94.60
27368;DHT22;14839;48.106;11.618;2023-02-28T07:22:11;-2.00;94.60
27368;DHT22;14839;48.106;11.618;2023-02-28T07:24:36;-2.00;94.60
27368;DHT22;14839;48.106;11.618;2023-02-28T07:27:03;-1.80;94.60
27368;DHT22;14839;48.106;11.618;2023-02-28T07:29:29;-1.80;94.60
27368;DHT22;14839;48.106;11.618;2023-02-28T07:31:56;-1.80;94.60
27368;DHT22;14839;48.106;11.618;2023-02-28T07:34:21;-1.90;94.60
27368;DHT22;14839;48.106;11.618;2023-02-28T07:36:47;-2.10;94.60
27368;DHT22;14839;48.106;11.618;2023-02-28T07:39:13;-2.00;94.60
27368;DHT22;14839;48.106;11.618;2023-02-28T07:41:38;-1.90;94.60
27368;DHT22;14839;48.106;11.618;2023-02-28T07:44:10;-1.90;94.60
27368;DHT22;14839;48.106;11.618;2023-02-28T07:46:35;-1.80;94.60
27368;DHT22;14839;48.106;11.618;2023-02-28T07:49:02;-1.80;94.60
27368;DHT22;14839;48.106;11.618;2023-02-28T07:51:29;-1.80;94.60
27368;DHT22;14839;48.106;11.618;2023-02-28T07:53:55;-1.90;94.60
27368;DHT22;14839;48.106;11.618;2023-02-28T07:56:20;-1.80;94.60
27368;DHT22;14839;48.106;11.618;2023-02-28T07:58:46;-1.80;94.60
27368;DHT22;14839;48.106;11.618;2023-02-28T08:01:12;-1.60;94.60
27368;DHT22;14839;48.106;11.618;2023-02-28T08:03:38;-1.70;94.60
27368;DHT22;14839;48.106;11.618;2023-02-28T08:06:06;-1.70;94.60
27368;DHT22;14839;48.106;11.618;2023-02-28T08:08:31;-1.80;94.60
27368;DHT22;14839;48.106;11.618;2023-02-28T08:11:02;-2.00;94.60
27368;DHT22;14839;48.106;11.618;2023-02-28T08:13:29;-2.00;94.60
27368;DHT22;14839;48.106;11.618;2023-02-28T08:15:55;-1.80;94.60
27368;DHT22;14839;48.106;11.618;2023-02-28T08:18:22;-1.70;94.60
27368;DHT22;14839;48.106;11.618;2023-02-28T08:20:48;-1.70;94.60
27368;DHT22;14839;48.106;11.618;2023-02-28T08:23:13;-1.70;94.60
27368;DHT22;14839;48.106;11.618;2023-02-28T08:25:39;-1.60;94.60
27368;DHT22;14839;48.106;11.618;2023-02-28T08:28:04;-1.60;94.60
27368;DHT22;14839;48.106;11.618;2023-02-28T08:30:30;-1.60;94.60
27368;DHT22;14839;48.106;11.618;2023-02-28T08:32:56;-1.60;94.60
27368;DHT22;14839;48.106;11.618;2023-02-28T08:35:22;-1.50;94.60
27368;DHT22;14839;48.106;11.618;2023-02-28T08:37:48;-1.60;94.60
27368;DHT22;14839;48.106;11.618;2023-02-28T08:40:15;-1.50;94.60
27368;DHT22;14839;48.106;11.618;2023-02-28T08:42:44;-1.40;94.60
27368;DHT22;14839;48.106;11.618;2023-02-28T08:45:10;-1.40;94.60
27368;DHT22;14839;48.106;11.618;2023-02-28T08:47:36;-1.30;94.60
27368;DHT22;14839;48.106;11.618;2023-02-28T08:50:02;-1.20;94.60
27368;DHT22;14839;48.106;11.618;2023-02-28T08:52:27;-1.20;94.60
27368;DHT22;14839;48.106;11.618;2023-02-28T08:54:53;-1.10;94.60
27368;DHT22;14839;48.106;11.618;2023-02-28T08:57:19;-1.20;94.60
27368;DHT22;14839;48.106;11.618;2023-02-28T08:59:44;-1.10;94.60
27368;DHT22;14839;48.106;11.618;2023-02-28T09:02:13;-1.10;94.60
27368;DHT22;14839;48.106;11.618;2023-02-28T09:04:39;-1.00;94.60
27368;DHT22;14839;48.106;11.618;2023-02-28T09:07:05;-0.90;94.60
27368;DHT22;14839;48.106;11.618;2023-02-28T09:09:31;-0.90;94.60
27368;DHT22;14839;48.106;11.618;2023-02-28T09:11:58;-0.80;94.60
27368;DHT22;14839;48.106;11.618;2023-02-28T09:14:23;-0.80;94.60
27368;DHT22;14839;48.106;11.618;2023-02-28T09:16:52;-0.90;94.60
27368;DHT22;14839;48.106;11.618;2023-02-28T09:19:20;-0.80;94.60
27368;DHT22;14839;48.106;11.618;2023-02-28T09:21:46;-0.60;94.60
27368;DHT22;14839;48.106;11.618;2023-02-28T09:24:11;-0.60;94.40
27368;DHT22;14839;48.106;11.618;2023-02-28T09:26:39;-0.60;94.50
27368;DHT22;14839;48.106;11.618;2023-02-28T09:29:05;-0.50;94.20
27368;DHT22;14839;48.106;11.618;2023-02-28T09:31:33;-0.40;93.80
27368;DHT22;14839;48.106;11.618;2023-02-28T09:33:59;-0.40;93.60
27368;DHT22;14839;48.106;11.618;2023-02-28T09:36:26;-0.40;93.50
27368;DHT22;14839;48.106;11.618;2023-02-28T09:38:52;-0.50;93.60
27368;DHT22;14839;48.106;11.618;2023-02-28T09:41:25;-0.50;93.50
27368;DHT22;14839;48.106;11.618;2023-02-28T09:43:56;-0.60;93.80
27368;DHT22;14839;48.106;11.618;2023-02-28T09:46:32;-0.50;94.20
27368;DHT22;14839;48.106;11.618;2023-02-28T09:49:02;-0.40;93.50
27368;DHT22;14839;48.106;11.618;2023-02-28T09:51:44;-0.40;93.00
27368;DHT22;14839;48.106;11.618;2023-02-28T09:54:18;-0.40;92.90
27368;DHT22;14839;48.106;11.618;2023-02-28T10:05:11;-0.60;93.50
27368;DHT22;14839;48.106;11.618;2023-02-28T10:07:41;-0.70;94.10
27368;DHT22;14839;48.106;11.618;2023-02-28T10:10:42;-0.60;94.40
27368;DHT22;14839;48.106;11.618;2023-02-28T10:16:14;-0.30;93.00
27368;DHT22;14839;48.106;11.618;2023-02-28T10:18:49;-0.10;93.20
27368;DHT22;14839;48.106;11.618;2023-02-28T10:21:24;0.00;92.30
27368;DHT22;14839;48.106;11.618;2023-02-28T10:23:56;0.10;91.40
27368;DHT22;14839;48.106;11.618;2023-02-28T10:26:22;0.00;91.90
27368;DHT22;14839;48.106;11.618;2023-02-28T10:28:58;-0.10;92.30
27368;DHT22;14839;48.106;11.618;2023-02-28T10:31:24;0.20;91.90
27368;DHT22;14839;48.106;11.618;2023-02-28T10:33:50;0.00;91.10
27368;DHT22;14839;48.106;11.618;2023-02-28T10:36:19;0.20;90.80
27368;DHT22;14839;48.106;11.618;2023-02-28T10:38:46;0.70;90.40
27368;DHT22;14839;48.106;11.618;2023-02-28T10:43:53;1.00;87.20
27368;DHT22;14839;48.106;11.618;2023-02-28T10:46:39;1.30;86.80
27368;DHT22;14839;48.106;11.618;2023-02-28T10:49:11;1.40;86.20
27368;DHT22;14839;48.106;11.618;2023-02-28T10:51:39;1.20;86.20
27368;DHT22;14839;48.106;11.618;2023-02-28T10:54:06;1.30;86.60
27368;DHT22;14839;48.106;11.618;2023-02-28T10:56:39;1.00;87.10
27368;DHT22;14839;48.106;11.618;2023-02-28T10:59:29;1.20;87.10
27368;DHT22;14839;48.106;11.618;2023-02-28T11:01:55;1.40;86.80
27368;DHT22;14839;48.106;11.618;2023-02-28T11:10:04;1.60;86.50
27368;DHT22;14839;48.106;11.618;2023-02-28T11:12:39;1.60;85.30
27368;DHT22;14839;48.106;11.618;2023-02-28T11:15:26;1.60;85.90
27368;DHT22;14839;48.106;11.618;2023-02-28T11:18:02;1.70;86.60
27368;DHT22;14839;48.106;11.618;2023-02-28T11:20:33;2.10;85.60
27368;DHT22;14839;48.106;11.618;2023-02-28T11:23:01;2.20;85.10
27368;DHT22;14839;48.106;11.618;2023-02-28T11:25:31;2.20;84.10
27368;DHT22;14839;48.106;11.618;2023-02-28T11:28:05;2.10;83.80
27368;DHT22;14839;48.106;11.618;2023-02-28T11:30:35;2.10;84.50
27368;DHT22;14839;48.106;11.618;2023-02-28T11:35:52;2.00;85.90
27368;DHT22;14839;48.106;11.618;2023-02-28T11:38:20;2.00;85.40
27368;DHT22;14839;48.106;11.618;2023-02-28T11:41:50;2.20;85.30
27368;DHT22;14839;48.106;11.618;2023-02-28T11:43:58;2.20;83.50
27368;DHT22;14839;48.106;11.618;2023-02-28T11:46:46;2.40;83.50
27368;DHT22;14839;48.106;11.618;2023-02-28T11:52:45;2.40;84.40
27368;DHT22;14839;48.106;11.618;2023-02-28T11:55:27;2.80;84.10
27368;DHT22;14839;48.106;11.618;2023-02-28T11:58:04;3.30;81.20
27368;DHT22;14839;48.106;11.618;2023-02-28T12:11:43;3.30;79.10
27368;DHT22;14839;48.106;11.618;2023-02-28T12:17:25;3.50;78.80
27368;DHT22;14839;48.106;11.618;2023-02-28T12:26:06;3.80;77.80
27368;DHT22;14839;48.106;11.618;2023-02-28T12:28:39;3.80;78.70
27368;DHT22;14839;48.106;11.618;2023-02-28T12:31:35;3.70;77.80
27368;DHT22;14839;48.106;11.618;2023-02-28T12:34:10;3.80;78.50
27368;DHT22;14839;48.106;11.618;2023-02-28T12:36:37;4.20;77.20
27368;DHT22;14839;48.106;11.618;2023-02-28T12:39:18;3.80;77.50
27368;DHT22;14839;48.106;11.618;2023-02-28T12:42:00;3.40;77.80
27368;DHT22;14839;48.106;11.618;2023-02-28T12:44:49;3.20;80.00
27368;DHT22;14839;48.106;11.618;2023-02-28T12:47:18;3.20;81.50
27368;DHT22;14839;48.106;11.618;2023-02-28T12:49:52;3.40;81.50
27368;DHT22;14839;48.106;11.618;2023-02-28T12:52:47;3.70;79.70
27368;DHT22;14839;48.106;11.618;2023-02-28T12:55:27;3.20;79.40
27368;DHT22;14839;48.106;11.618;2023-02-28T13:09:13;2.80;82.70
27368;DHT22;14839;48.106;11.618;2023-02-28T13:11:47;3.10;81.40
27368;DHT22;14839;48.106;11.618;2023-02-28T13:14:35;3.10;80.50
27368;DHT22;14839;48.106;11.618;2023-02-28T13:19:37;3.00;81.40
27368;DHT22;14839;48.106;11.618;2023-02-28T13:22:04;2.90;81.40
27368;DHT22;14839;48.106;11.618;2023-02-28T13:24:40;2.90;81.20
27368;DHT22;14839;48.106;11.618;2023-02-28T13:29:44;2.50;83.80
27368;DHT22;14839;48.106;11.618;2023-02-28T13:35:08;2.50;82.40
27368;DHT22;14839;48.106;11.618;2023-02-28T13:37:35;2.40;82.90
27368;DHT22;14839;48.106;11.618;2023-02-28T13:47:52;2.70;82.90
27368;DHT22;14839;48.106;11.618;2023-02-28T13:50:30;2.90;82.60
27368;DHT22;14839;48.106;11.618;2023-02-28T13:56:07;3.10;81.40
27368;DHT22;14839;48.106;11.618;2023-02-28T13:59:05;2.90;83.20
27368;DHT22;14839;48.106;11.618;2023-02-28T14:06:50;3.40;82.00
27368;DHT22;14839;48.106;11.618;2023-02-28T14:09:29;3.20;81.40
27368;DHT22;14839;48.106;11.618;2023-02-28T14:11:56;3.10;81.20
27368;DHT22;14839;48.106;11.618;2023-02-28T14:17:08;3.10;81.70
27368;DHT22;14839;48.106;11.618;2023-02-28T14:19:38;2.80;82.30
27368;DHT22;14839;48.106;11.618;2023-02-28T14:33:23;2.90;82.30
27368;DHT22;14839;48.106;11.618;2023-02-28T14:38:33;2.90;82.70
27368;DHT22;14839;48.106;11.618;2023-02-28T14:41:06;2.90;83.20
27368;DHT22;14839;48.106;11.618;2023-02-28T14:43:52;2.80;82.70
27368;DHT22;14839;48.106;11.618;2023-02-28T14:46:18;2.70;83.30
27368;DHT22;14839;48.106;11.618;2023-02-28T14:48:49;2.70;83.00
27368;DHT22;14839;48.106;11.618;2023-02-28T14:51:21;2.70;83.30
27368;DHT22;14839;48.106;11.618;2023-02-28T14:53:50;2.80;83.60
27368;DHT22;14839;48.106;11.618;2023-02-28T14:56:21;2.80;83.00
27368;DHT22;14839;48.106;11.618;2023-02-28T14:58:55;2.80;82.30
27368;DHT22;14839;48.106;11.618;2023-02-28T15:01:22;2.80;82.10
27368;DHT22;14839;48.106;11.618;2023-02-28T15:03:57;2.80;82.30
27368;DHT22;14839;48.106;11.618;2023-02-28T15:06:23;2.80;82.60
27368;DHT22;14839;48.106;11.618;2023-02-28T15:09:07;2.80;82.40
27368;DHT22;14839;48.106;11.618;2023-02-28T15:11:33;2.90;82.10
27368;DHT22;14839;48.106;11.618;2023-02-28T15:14:00;2.80;82.40
27368;DHT22;14839;48.106;11.618;2023-02-28T15:19:06;2.80;82.40
27368;DHT22;14839;48.106;11.618;2023-02-28T15:21:40;2.90;83.00
27368;DHT22;14839;48.106;11.618;2023-02-28T15:24:15;2.90;82.10
27368;DHT22;14839;48.106;11.618;2023-02-28T15:26:45;2.90;82.30
27368;DHT22;14839;48.106;11.618;2023-02-28T15:29:21;3.00;81.80
27368;DHT22;14839;48.106;11.618;2023-02-28T15:34:30;2.90;82.70
27368;DHT22;14839;48.106;11.618;2023-02-28T15:36:58;3.00;82.10
27368;DHT22;14839;48.106;11.618;2023-02-28T15:39:26;2.90;82.40
27368;DHT22;14839;48.106;11.618;2023-02-28T15:42:11;2.90;82.40
27368;DHT22;14839;48.106;11.618;2023-02-28T15:44:37;2.90;82.70
27368;DHT22;14839;48.106;11.618;2023-02-28T15:47:06;2.90;82.90
27368;DHT22;14839;48.106;11.618;2023-02-28T15:49:40;2.80;82.90
27368;DHT22;14839;48.106;11.618;2023-02-28T15:52:13;2.80;83.60
27368;DHT22;14839;48.106;11.618;2023-02-28T15:54:41;2.80;83.00
27368;DHT22;14839;48.106;11.618;2023-02-28T15:57:15;2.80;83.50
27368;DHT22;14839;48.106;11.618;2023-02-28T15:59:55;2.80;83.50
27368;DHT22;14839;48.106;11.618;2023-02-28T16:02:44;2.70;83.90
27368;DHT22;14839;48.106;11.618;2023-02-28T16:07:36;2.70;84.50
27368;DHT22;14839;48.106;11.618;2023-02-28T16:10:02;2.60;84.80
27368;DHT22;14839;48.106;11.618;2023-02-28T16:12:30;2.50;85.00
27368;DHT22;14839;48.106;11.618;2023-02-28T16:14:58;2.50;85.10
27368;DHT22;14839;48.106;11.618;2023-02-28T16:17:27;2.50;85.10
27368;DHT22;14839;48.106;11.618;2023-02-28T16:19:54;2.50;85.30
27368;DHT22;14839;48.106;11.618;2023-02-28T16:22:20;2.50;85.40
27368;DHT22;14839;48.106;11.618;2023-02-28T16:24:46;2.40;85.30
27368;DHT22;14839;48.106;11.618;2023-02-28T16:27:36;2.40;85.40
27368;DHT22;14839;48.106;11.618;2023-02-28T16:30:03;2.40;85.70
27368;DHT22;14839;48.106;11.618;2023-02-28T16:32:31;2.30;85.90
27368;DHT22;14839;48.106;11.618;2023-02-28T16:34:57;2.30;86.00
27368;DHT22;14839;48.106;11.618;2023-02-28T16:37:22;2.20;86.30
27368;DHT22;14839;48.106;11.618;2023-02-28T16:39:48;2.30;86.50
27368;DHT22;14839;48.106;11.618;2023-02-28T16:42:20;2.20;86.50
27368;DHT22;14839;48.106;11.618;2023-02-28T16:44:48;2.20;86.80
27368;DHT22;14839;48.106;11.618;2023-02-28T16:47:14;2.20;86.80
27368;DHT22;14839;48.106;11.618;2023-02-28T16:49:39;2.10;87.10
27368;DHT22;14839;48.106;11.618;2023-02-28T16:52:07;2.10;87.20
27368;DHT22;14839;48.106;11.618;2023-02-28T16:54:33;2.10;87.50
27368;DHT22;14839;48.106;11.618;2023-02-28T16:56:59;2.10;87.70
27368;DHT22;14839;48.106;11.618;2023-02-28T16:59:26;2.00;88.00
27368;DHT22;14839;48.106;11.618;2023-02-28T17:01:53;2.00;88.10
27368;DHT22;14839;48.106;11.618;2023-02-28T17:04:19;1.90;88.40
27368;DHT22;14839;48.106;11.618;2023-02-28T17:06:45;1.80;88.90
27368;DHT22;14839;48.106;11.618;2023-02-28T17:09:16;1.60;89.50
27368;DHT22;14839;48.106;11.618;2023-02-28T17:11:43;1.50;90.10
27368;DHT22;14839;48.106;11.618;2023-02-28T17:14:08;1.40;90.50
27368;DHT22;14839;48.106;11.618;2023-02-28T17:16:35;1.30;90.90
27368;DHT22;14839;48.106;11.618;2023-02-28T17:19:04;1.30;91.40
27368;DHT22;14839;48.106;11.618;2023-02-28T17:21:30;1.20;92.40
27368;DHT22;14839;48.106;11.618;2023-02-28T17:23:57;1.20;92.80
27368;DHT22;14839;48.106;11.618;2023-02-28T17:26:23;1.00;93.30
27368;DHT22;14839;48.106;11.618;2023-02-28T17:28:53;1.00;93.70
27368;DHT22;14839;48.106;11.618;2023-02-28T17:31:21;0.90;94.40
27368;DHT22;14839;48.106;11.618;2023-02-28T17:33:47;0.80;94.60
27368;DHT22;14839;48.106;11.618;2023-02-28T17:36:15;0.80;94.60
27368;DHT22;14839;48.106;11.618;2023-02-28T17:38:41;0.90;94.60
27368;DHT22;14839;48.106;11.618;2023-02-28T17:41:14;0.90;94.60
27368;DHT22;14839;48.106;11.618;2023-02-28T17:43:40;0.90;94.60
27368;DHT22;14839;48.106;11.618;2023-02-28T17:46:19;0.90;94.60
27368;DHT22;14839;48.106;11.618;2023-02-28T17:48:47;0.90;94.60
27368;DHT22;14839;48.106;11.618;2023-02-28T17:51:13;0.90;94.60
27368;DHT22;14839;48.106;11.618;2023-02-28T17:53:40;1.00;94.60
27368;DHT22;14839;48.106;11.618;2023-02-28T17:56:11;0.90;94.60
27368;DHT22;14839;48.106;11.618;2023-02-28T17:58:37;0.90;94.60
27368;DHT22;14839;48.106;11.618;2023-02-28T18:01:02;0.90;94.60
27368;DHT22;14839;48.106;11.618;2023-02-28T18:03:28;0.90;94.60
27368;DHT22;14839;48.106;11.618;2023-02-28T18:05:55;0.90;94.60
27368;DHT22;14839;48.106;11.618;2023-02-28T18:08:22;1.10;94.60
27368;DHT22;14839;48.106;11.618;2023-02-28T18:10:47;1.10;94.60
27368;DHT22;14839;48.106;11.618;2023-02-28T18:13:13;1.10;94.60
27368;DHT22;14839;48.106;11.618;2023-02-28T18:15:39;1.10;94.60
27368;DHT22;14839;48.106;11.618;2023-02-28T18:18:04;1.10;94.60
27368;DHT22;14839;48.106;11.618;2023-02-28T18:20:32;1.20;94.60
27368;DHT22;14839;48.106;11.618;2023-02-28T18:22:58;1.20;94.60
27368;DHT22;14839;48.106;11.618;2023-02-28T18:25:23;1.20;94.60
27368;DHT22;14839;48.106;11.618;2023-02-28T18:27:49;1.20;94.60
27368;DHT22;14839;48.106;11.618;2023-02-28T18:30:28;1.20;94.60
27368;DHT22;14839;48.106;11.618;2023-02-28T18:32:58;1.20;94.60
27368;DHT22;14839;48.106;11.618;2023-02-28T18:35:24;1.10;94.60
27368;DHT22;14839;48.106;11.618;2023-02-28T18:38:13;1.00;94.60
27368;DHT22;14839;48.106;11.618;2023-02-28T18:40:40;1.00;94.60
27368;DHT22;14839;48.106;11.618;2023-02-28T18:43:07;1.00;94.60
27368;DHT22;14839;48.106;11.618;2023-02-28T18:45:39;1.00;94.60
27368;DHT22;14839;48.106;11.618;2023-02-28T18:48:05;1.10;94.60
27368;DHT22;14839;48.106;11.618;2023-02-28T18:50:30;1.10;94.60
27368;DHT22;14839;48.106;11.618;2023-02-28T18:52:56;1.00;94.60
27368;DHT22;14839;48.106;11.618;2023-02-28T18:55:25;1.10;94.60
27368;DHT22;14839;48.106;11.618;2023-02-28T18:57:52;1.30;94.60
27368;DHT22;14839;48.106;11.618;2023-02-28T19:00:18;1.40;94.60
27368;DHT22;14839;48.106;11.618;2023-02-28T19:02:47;1.40;94.60
27368;DHT22;14839;48.106;11.618;2023-02-28T19:05:17;1.50;94.60
27368;DHT22;14839;48.106;11.618;2023-02-28T19:07:43;1.40;94.60
27368;DHT22;14839;48.106;11.618;2023-02-28T19:10:10;1.40;94.60
27368;DHT22;14839;48.106;11.618;2023-02-28T19:12:36;1.40;94.60
27368;DHT22;14839;48.106;11.618;2023-02-28T19:15:04;1.40;94.60
27368;DHT22;14839;48.106;11.618;2023-02-28T19:17:30;1.40;94.60
27368;DHT22;14839;48.106;11.618;2023-02-28T19:19:56;1.40;94.60
27368;DHT22;14839;48.106;11.618;2023-02-28T19:22:22;1.40;94.60
27368;DHT22;14839;48.106;11.618;2023-02-28T19:24:49;1.50;94.60
27368;DHT22;14839;48.106;11.618;2023-02-28T19:27:16;1.60;94.60
27368;DHT22;14839;48.106;11.618;2023-02-28T19:29:47;1.50;94.30
27368;DHT22;14839;48.106;11.618;2023-02-28T19:32:13;1.50;94.50
27368;DHT22;14839;48.106;11.618;2023-02-28T19:34:39;1.60;94.50
27368;DHT22;14839;48.106;11.618;2023-02-28T19:37:05;1.60;94.40
27368;DHT22;14839;48.106;11.618;2023-02-28T19:39:30;1.60;94.20
27368;DHT22;14839;48.106;11.618;2023-02-28T19:42:15;1.70;94.00
27368;DHT22;14839;48.106;11.618;2023-02-28T19:44:41;1.70;94.00
27368;DHT22;14839;48.106;11.618;2023-02-28T19:47:07;1.70;94.00
27368;DHT22;14839;48.106;11.618;2023-02-28T19:49:33;1.70;94.10
27368;DHT22;14839;48.106;11.618;2023-02-28T19:51:59;1.70;94.10
27368;DHT22;14839;48.106;11.618;2023-02-28T19:54:26;1.70;94.30
27368;DHT22;14839;48.106;11.618;2023-02-28T19:56:52;1.70;94.30
27368;DHT22;14839;48.106;11.618;2023-02-28T19:59:26;1.60;94.40
27368;DHT22;14839;48.106;11.618;2023-02-28T20:01:52;1.70;94.50
27368;DHT22;14839;48.106;11.618;2023-02-28T20:04:25;1.70;94.60
27368;DHT22;14839;48.106;11.618;2023-02-28T20:06:51;1.70;94.60
27368;DHT22;14839;48.106;11.618;2023-02-28T20:09:17;1.70;94.40
27368;DHT22;14839;48.106;11.618;2023-02-28T20:11:43;1.70;94.40
27368;DHT22;14839;48.106;11.618;2023-02-28T20:14:10;1.70;94.60
27368;DHT22;14839;48.106;11.618;2023-02-28T20:16:40;1.70;94.60
27368;DHT22;14839;48.106;11.618;2023-02-28T20:19:06;1.70;94.60
27368;DHT22;14839;48.106;11.618;2023-02-28T20:21:32;1.70;94.60
27368;DHT22;14839;48.106;11.618;2023-02-28T20:23:57;1.70;94.60
27368;DHT22;14839;48.106;11.618;2023-02-28T20:26:23;1.70;94.60
27368;DHT22;14839;48.106;11.618;2023-02-28T20:28:48;1.70;94.60
27368;DHT22;14839;48.106;11.618;2023-02-28T20:31:20;1.60;94.60
27368;DHT22;14839;48.106;11.618;2023-02-28T20:33:48;1.70;94.60
27368;DHT22;14839;48.106;11.618;2023-02-28T20:36:14;1.70;94.60
27368;DHT22;14839;48.106;11.618;2023-02-28T20:38:41;1.60;94.60
27368;DHT22;14839;48.106;11.618;2023-02-28T20:41:08;1.60;94.60
27368;DHT22;14839;48.106;11.618;2023-02-28T20:43:33;1.60;94.60
27368;DHT22;14839;48.106;11.618;2023-02-28T20:45:59;1.60;94.60
27368;DHT22;14839;48.106;11.618;2023-02-28T20:48:29;1.60;94.60
27368;DHT22;14839;48.106;11.618;2023-02-28T20:50:56;1.60;94.60
27368;DHT22;14839;48.106;11.618;2023-02-28T20:53:24;1.60;94.60
27368;DHT22;14839;48.106;11.618;2023-02-28T20:56:02;1.60;94.60
27368;DHT22;14839;48.106;11.618;2023-02-28T20:58:33;1.60;94.60
27368;DHT22;14839;48.106;11.618;2023-02-28T21:01:11;1.50;94.60
27368;DHT22;14839;48.106;11.618;2023-02-28T21:03:45;1.50;94.60
27368;DHT22;14839;48.106;11.618;2023-02-28T21:06:10;1.50;94.60
27368;DHT22;14839;48.106;11.618;2023-02-28T21:08:38;1.50;94.60
27368;DHT22;14839;48.106;11.618;2023-02-28T21:11:08;1.60;94.60
27368;DHT22;14839;48.106;11.618;2023-02-28T21:13:35;1.60;94.60
27368;DHT22;14839;48.106;11.618;2023-02-28T21:16:06;1.60;94.60
27368;DHT22;14839;48.106;11.618;2023-02-28T21:18:32;1.50;94.60
27368;DHT22;14839;48.106;11.618;2023-02-28T21:21:14;1.40;94.60
27368;DHT22;14839;48.106;11.618;2023-02-28T21:23:40;1.40;94.60
27368;DHT22;14839;48.106;11.618;2023-02-28T21:26:09;1.40;94.60
27368;DHT22;14839;48.106;11.618;2023-02-28T21:28:41;1.40;94.60
27368;DHT22;14839;48.106;11.618;2023-02-28T21:31:11;1.30;94.60
27368;DHT22;14839;48.106;11.618;2023-02-28T21:33:37;1.40;94.60
27368;DHT22;14839;48.106;11.618;2023-02-28T21:36:08;1.40;94.60
27368;DHT22;14839;48.106;11.618;2023-02-28T21:38:35;1.40;94.60
27368;DHT22;14839;48.106;11.618;2023-02-28T21:41:11;1.50;94.60
27368;DHT22;14839;48.106;11.618;2023-02-28T21:43:37;1.50;94.60
27368;DHT22;14839;48.106;11.618;2023-02-28T21:46:08;1.50;94.60
27368;DHT22;14839;48.106;11.618;2023-02-28T21:48:35;1.50;94.60
27368;DHT22;14839;48.106;11.618;2023-02-28T21:51:03;1.40;94.60
27368;DHT22;14839;48.106;11.618;2023-02-28T21:53:32;1.40;94.60
27368;DHT22;14839;48.106;11.618;2023-02-28T21:56:05;1.40;94.60
27368;DHT22;14839;48.106;11.618;2023-02-28T21:58:31;1.40;94.60
27368;DHT22;14839;48.106;11.618;2023-02-28T22:01:23;1.40;94.60
27368;DHT22;14839;48.106;11.618;2023-02-28T22:03:49;1.40;94.60
27368;DHT22;14839;48.106;11.618;2023-02-28T22:06:19;1.40;94.60
27368;DHT22;14839;48.106;11.618;2023-02-28T22:08:51;1.30;94.60
27368;DHT22;14839;48.106;11.618;2023-02-28T22:11:17;1.30;94.60
27368;DHT22;14839;48.106;11.618;2023-02-28T22:13:43;1.30;94.60
27368;DHT22;14839;48.106;11.618;2023-02-28T22:16:11;1.30;94.60
27368;DHT22;14839;48.106;11.618;2023-02-28T22:18:38;1.20;94.60
27368;DHT22;14839;48.106;11.618;2023-02-28T22:21:06;1.20;94.60
27368;DHT22;14839;48.106;11.618;2023-02-28T22:23:32;1.20;94.60